Malcolm Mc Kinnon Airport
KSSI : now visible

Airfield :











YOU CAN JOIN US ON...

 
LOGIN :

Register | Disclaimer

   EN    FR    IT 

 









Legend :    VFR   Marginal VFR   IFR   Intensive IFR   Very Intensive IFR
Visi :
Ceiling :
>= 8 km
>= 3000ft
5 to 8 km
1000 to 3000 ft
1500m to 5 km
500 to 1000 ft
800 to 1500m
200 to 500 ft
< 800m
< 200 ft
Symbols :   Thunderstorms  Fog  Heavy snow  Heavy precipitations  Wind > 20 kt






- Airport Elevation : 19 ft


KSSI - Malcolm Mc Kinnon

CURRENT METAR :
  • 211202Z AUTO 00000KT 10SM FEW002 BKN016 18/16 A3000 RMK AO2 T01780161

EXPIRED METARs :
  • 211153Z AUTO 00000KT 10SM SCT016 18/16 A3000 RMK AO2 SLP161 T01780161 10183 20167 53008
  • 211053Z AUTO 00000KT 10SM CLR 18/16 A2998 RMK AO2 SLP153 T01780161
  • 210953Z AUTO 00000KT 10SM CLR 18/16 A2999 RMK AO2 SLP155 T01780156

TAF KSSI
Valid from the 21 at 12:00 until the 22 at 12:00 UTC


211120Z 2112/2212 VRB02KT P6SM FEW015
FM211500 09006KT P6SM SCT250
FM212100 12008KT P6SM BKN050
FM220100 13010KT P6SM VCSH BKN030 OVC050
PROB30 2201/2205 4SM SHRA BR BKN012



MET'MAP, your aeronautical weather chart ! - Copyright ORBIFLY December 2007 - Disclaimer

ORBIFLY MET'MAP TEAM :

Programming & Development : Alexandra Zaïnal
Concept & Development : Baudouin d'Aumeries
Co-Development & Prog : Marc-Olivier Méhu
Technical & hardware support : Manuel Goepfert

Contact : metmap@orbifly.com




SOURCES & CREDITS :

   NOAA       Earth
Advisory